createdAt,value
2018-03-15T00:00:12.301Z,3.40
2018-03-15T00:02:42.472Z,3.43
2018-03-15T00:05:11.875Z,3.46
2018-03-15T00:07:41.411Z,3.44
2018-03-15T00:10:11.355Z,3.42
2018-03-15T00:12:40.563Z,3.38
2018-03-15T00:15:09.886Z,3.38
2018-03-15T00:17:39.124Z,3.33
2018-03-15T00:20:09.099Z,3.26
2018-03-15T00:22:38.314Z,3.26
2018-03-15T00:25:08.298Z,3.18
2018-03-15T00:27:37.526Z,3.16
2018-03-15T00:30:07.500Z,3.08
2018-03-15T00:32:36.747Z,3.05
2018-03-15T00:35:06.727Z,3.02
2018-03-15T00:37:35.926Z,3.09
2018-03-15T00:40:05.150Z,3.14
2018-03-15T00:42:34.390Z,3.10
2018-03-15T00:45:03.584Z,3.06
2018-03-15T00:47:32.853Z,3.06
2018-03-15T00:50:02.415Z,2.95
2018-03-15T00:52:31.631Z,2.86
2018-03-15T00:55:02.336Z,2.83
2018-03-15T00:57:31.527Z,2.80
2018-03-15T01:00:00.736Z,2.79
2018-03-15T01:02:30.107Z,2.71
2018-03-15T01:04:59.306Z,2.64
2018-03-15T01:07:28.524Z,2.60
2018-03-15T01:09:57.766Z,2.59
2018-03-15T01:12:27.107Z,2.59
2018-03-15T01:14:56.359Z,2.58
2018-03-15T01:17:25.619Z,2.59
2018-03-15T01:19:54.866Z,2.63
2018-03-15T01:22:24.871Z,2.69
2018-03-15T01:24:54.410Z,2.71
2018-03-15T01:27:23.621Z,2.66
2018-03-15T01:29:52.826Z,2.69
2018-03-15T01:32:22.175Z,2.61
2018-03-15T01:34:51.359Z,2.67
2018-03-15T01:37:20.604Z,2.72
2018-03-15T01:39:49.796Z,2.74
2018-03-15T01:42:19.005Z,2.71
2018-03-15T01:44:48.196Z,2.68
2018-03-15T01:47:17.592Z,2.65
2018-03-15T01:49:46.812Z,2.57
2018-03-15T01:52:16.126Z,2.50
2018-03-15T01:54:45.327Z,2.50
2018-03-15T01:57:14.543Z,2.47
2018-03-15T01:59:45.249Z,2.51
2018-03-15T02:02:14.591Z,2.51
2018-03-15T02:04:44.582Z,2.46
2018-03-15T02:07:13.766Z,2.47
2018-03-15T02:09:42.975Z,2.48
2018-03-15T02:12:12.492Z,2.48
2018-03-15T02:14:41.772Z,2.48
2018-03-15T02:17:10.983Z,2.53
2018-03-15T02:19:40.312Z,2.50
2018-03-15T02:22:09.491Z,2.53
2018-03-15T02:24:38.695Z,2.53
2018-03-15T02:27:08.710Z,2.47
2018-03-15T02:29:38.817Z,2.50
2018-03-15T02:32:08.044Z,2.47
2018-03-15T02:34:37.265Z,2.40
2018-03-15T02:37:06.599Z,2.37
2018-03-15T02:39:36.052Z,2.34
2018-03-15T02:42:05.268Z,2.34
2018-03-15T02:44:34.451Z,2.26
2018-03-15T02:47:03.631Z,2.23
2018-03-15T02:49:32.888Z,2.20
2018-03-15T02:52:02.086Z,2.17
2018-03-15T02:54:31.294Z,2.19
2018-03-15T02:57:02.020Z,2.17
2018-03-15T02:59:31.502Z,2.13
2018-03-15T03:02:00.851Z,2.13
2018-03-15T03:04:30.949Z,2.14
2018-03-15T03:07:01.034Z,2.14
2018-03-15T03:09:30.364Z,2.16
2018-03-15T03:11:59.594Z,2.17
2018-03-15T03:14:29.568Z,2.20
2018-03-15T03:16:58.900Z,2.24
2018-03-15T03:19:28.539Z,2.23
2018-03-15T03:21:57.851Z,2.24
2018-03-15T03:24:27.028Z,2.24
2018-03-15T03:26:57.019Z,2.28
2018-03-15T03:29:26.219Z,2.34
2018-03-15T03:31:55.496Z,2.46
2018-03-15T03:34:24.692Z,2.58
2018-03-15T03:36:53.913Z,2.70
2018-03-15T03:39:23.122Z,2.86
2018-03-15T03:41:52.349Z,2.95
2018-03-15T03:44:22.423Z,3.01
2018-03-15T03:46:51.641Z,2.89
2018-03-15T03:49:20.854Z,2.82
2018-03-15T03:51:50.065Z,2.77
2018-03-15T03:54:19.296Z,2.67
2018-03-15T03:56:48.507Z,2.57
2018-03-15T03:59:17.825Z,2.49
2018-03-15T04:01:47.030Z,2.38
2018-03-15T04:04:16.664Z,2.31
2018-03-15T04:06:45.839Z,2.24
2018-03-15T04:09:15.032Z,2.16
2018-03-15T04:11:45.002Z,2.11
2018-03-15T04:14:14.196Z,2.05
2018-03-15T04:16:43.416Z,2.02
2018-03-15T04:19:12.637Z,2.01
2018-03-15T04:21:42.742Z,2.02
2018-03-15T04:24:12.107Z,2.06
2018-03-15T04:26:41.297Z,2.09
2018-03-15T04:29:10.519Z,2.14
2018-03-15T04:31:39.714Z,2.22
2018-03-15T04:34:08.899Z,2.25
2018-03-15T04:36:38.134Z,2.25
2018-03-15T04:39:08.111Z,2.28
2018-03-15T04:41:37.319Z,2.32
2018-03-15T04:44:06.575Z,2.37
2018-03-15T04:46:36.775Z,2.36
2018-03-15T04:49:06.079Z,2.46
2018-03-15T04:51:35.314Z,2.55
2018-03-15T04:54:04.506Z,2.63
2018-03-15T04:56:33.731Z,2.64
2018-03-15T04:59:02.922Z,2.68
2018-03-15T05:01:32.240Z,2.73
2018-03-15T05:04:01.459Z,2.75
2018-03-15T05:06:31.432Z,2.75
2018-03-15T05:09:00.769Z,2.77
2018-03-15T05:11:30.006Z,2.77
2018-03-15T05:13:59.194Z,2.75
2018-03-15T05:16:28.467Z,2.70
2018-03-15T05:18:58.612Z,2.66
2018-03-15T05:21:27.866Z,2.62
2018-03-15T05:23:57.051Z,2.61
2018-03-15T05:26:26.404Z,2.59
2018-03-15T05:28:55.609Z,2.56
2018-03-15T05:31:24.823Z,2.53
2018-03-15T05:33:54.130Z,2.53
2018-03-15T05:36:23.318Z,2.50
2018-03-15T05:38:54.367Z,2.51
2018-03-15T05:41:23.589Z,2.53
2018-03-15T05:43:52.796Z,2.55
2018-03-15T05:46:22.081Z,2.54
2018-03-15T05:48:51.310Z,2.57
2018-03-15T05:51:20.598Z,2.53
2018-03-15T05:53:50.306Z,2.52
2018-03-15T05:56:19.470Z,2.54
2018-03-15T05:58:48.904Z,2.54
2018-03-15T06:01:18.883Z,2.52
2018-03-15T06:03:48.107Z,2.50
2018-03-15T06:06:17.310Z,2.48
2018-03-15T06:08:46.794Z,2.49
2018-03-15T06:11:16.170Z,2.44
2018-03-15T06:13:45.415Z,2.45
2018-03-15T06:16:15.374Z,2.42
2018-03-15T06:18:44.632Z,2.41
2018-03-15T06:21:14.799Z,2.41
2018-03-15T06:23:44.032Z,2.41
2018-03-15T06:26:13.362Z,2.40
2018-03-15T06:28:43.346Z,2.43
2018-03-15T06:31:12.657Z,2.45
2018-03-15T06:33:41.787Z,2.48
2018-03-15T06:36:11.039Z,2.47
2018-03-15T06:38:40.258Z,2.51
2018-03-15T06:41:09.459Z,2.59
2018-03-15T06:43:39.436Z,2.65
2018-03-15T06:46:09.119Z,2.70
2018-03-15T06:48:38.530Z,2.74
2018-03-15T06:51:07.756Z,2.84
2018-03-15T06:53:36.918Z,2.93
2018-03-15T06:56:06.109Z,3.00
2018-03-15T06:58:36.031Z,3.08
2018-03-15T07:01:05.258Z,3.14
2018-03-15T07:03:34.460Z,3.25
2018-03-15T07:06:03.714Z,3.33
2018-03-15T07:08:32.930Z,3.38
2018-03-15T07:11:02.217Z,3.44
2018-03-15T07:13:31.411Z,3.52
2018-03-15T07:16:00.811Z,3.58
2018-03-15T07:18:30.009Z,3.66
2018-03-15T07:20:59.221Z,3.71
2018-03-15T07:23:28.566Z,3.77
2018-03-15T07:25:57.774Z,3.84
2018-03-15T07:28:27.777Z,3.91
2018-03-15T07:30:56.963Z,4.01
2018-03-15T07:33:26.282Z,4.07
2018-03-15T07:35:55.482Z,4.10
2018-03-15T07:38:24.686Z,4.19
2018-03-15T07:40:53.886Z,4.25
2018-03-15T07:43:23.855Z,4.33
2018-03-15T07:45:53.065Z,4.40
2018-03-15T07:48:22.285Z,4.44
2018-03-15T07:50:51.535Z,4.47
2018-03-15T07:53:21.574Z,4.54
2018-03-15T07:55:51.023Z,4.58
2018-03-15T07:58:20.457Z,4.67
2018-03-15T08:00:49.681Z,4.67
2018-03-15T08:03:18.860Z,4.74
2018-03-15T08:05:48.087Z,4.78
2018-03-15T08:08:17.275Z,4.86
2018-03-15T08:10:46.481Z,4.98
2018-03-15T08:13:15.699Z,5.06
2018-03-15T08:15:44.894Z,5.17
2018-03-15T08:18:14.915Z,5.28
2018-03-15T08:20:44.153Z,5.39
2018-03-15T08:23:13.345Z,5.52
2018-03-15T08:25:42.566Z,5.69
2018-03-15T08:28:11.757Z,5.85
2018-03-15T08:30:40.987Z,6.07
2018-03-15T08:33:10.870Z,6.16
2018-03-15T08:35:40.092Z,6.23
2018-03-15T08:38:09.510Z,6.32
2018-03-15T08:40:39.502Z,6.40
2018-03-15T08:43:08.830Z,6.51
2018-03-15T08:45:38.157Z,6.63
2018-03-15T08:48:07.376Z,6.79
2018-03-15T08:50:36.708Z,6.93
2018-03-15T08:53:05.913Z,7.10
2018-03-15T08:55:35.150Z,7.24
2018-03-15T08:58:04.346Z,7.37
2018-03-15T09:00:33.601Z,7.50
2018-03-15T09:03:02.822Z,7.61
2018-03-15T09:05:32.803Z,7.78
2018-03-15T09:08:01.997Z,7.92
2018-03-15T09:10:31.321Z,7.99
2018-03-15T09:13:01.296Z,8.03
2018-03-15T09:15:30.612Z,8.13
2018-03-15T09:17:59.824Z,8.30
2018-03-15T09:20:29.243Z,8.45
2018-03-15T09:22:58.431Z,8.68
2018-03-15T09:25:27.783Z,8.90
2018-03-15T09:27:57.009Z,9.06
2018-03-15T09:30:26.198Z,9.38
2018-03-15T09:32:55.411Z,9.67
2018-03-15T09:35:24.598Z,9.88
2018-03-15T09:37:53.858Z,9.92
2018-03-15T09:40:23.077Z,9.95
2018-03-15T09:42:52.280Z,10.08
2018-03-15T09:45:21.535Z,10.14
2018-03-15T09:47:50.728Z,10.21
2018-03-15T09:50:19.954Z,10.44
2018-03-15T09:52:49.351Z,10.63
2018-03-15T09:55:18.568Z,10.72
2018-03-15T09:57:47.773Z,10.87
2018-03-15T10:00:16.963Z,10.98
2018-03-15T10:02:46.184Z,11.02
2018-03-15T10:05:15.438Z,11.14
2018-03-15T10:07:44.755Z,11.19
2018-03-15T10:10:14.020Z,11.33
2018-03-15T10:12:43.228Z,11.34
2018-03-15T10:15:17.312Z,11.39
2018-03-15T10:17:47.299Z,11.38
2018-03-15T10:20:17.410Z,11.49
2018-03-15T10:22:46.689Z,11.66
2018-03-15T10:25:26.395Z,11.79
2018-03-15T10:27:45.124Z,11.74
2018-03-15T10:30:15.237Z,11.73
2018-03-15T10:32:45.216Z,11.81
2018-03-15T10:35:19.860Z,11.95
2018-03-15T10:37:49.059Z,12.02
2018-03-15T10:40:19.772Z,11.93
2018-03-15T10:42:49.059Z,11.86
2018-03-15T10:45:18.358Z,11.90
2018-03-15T10:47:48.303Z,12.01
2018-03-15T10:50:17.633Z,11.99
2018-03-15T10:52:46.915Z,11.90
2018-03-15T10:55:16.146Z,12.02
2018-03-15T10:57:46.211Z,12.10
2018-03-15T11:00:15.550Z,12.24
2018-03-15T11:02:47.445Z,12.33
2018-03-15T11:05:22.055Z,12.43
2018-03-15T11:07:56.651Z,12.67
2018-03-15T11:10:25.858Z,12.74
2018-03-15T11:12:55.826Z,12.84
2018-03-15T11:15:25.915Z,12.96
2018-03-15T11:17:55.120Z,13.13
2018-03-15T11:20:24.342Z,13.15
2018-03-15T11:22:53.603Z,13.22
2018-03-15T11:25:23.499Z,13.28
2018-03-15T11:27:53.200Z,13.36
2018-03-15T11:30:22.403Z,13.42
2018-03-15T11:32:51.616Z,13.46
2018-03-15T11:35:21.558Z,13.33
2018-03-15T11:37:50.792Z,13.35
2018-03-15T11:40:19.997Z,13.29
2018-03-15T11:42:49.219Z,13.24
2018-03-15T11:45:18.405Z,13.24
2018-03-15T11:47:48.408Z,13.27
2018-03-15T11:50:17.860Z,13.36
2018-03-15T11:52:47.057Z,13.46
2018-03-15T11:55:16.274Z,13.57
2018-03-15T11:57:45.492Z,13.61
2018-03-15T12:00:14.686Z,13.62
2018-03-15T12:02:43.915Z,13.72
2018-03-15T12:05:13.178Z,13.76
2018-03-15T12:07:42.374Z,13.80
2018-03-15T12:10:11.547Z,13.79
2018-03-15T12:12:40.770Z,13.87
2018-03-15T12:15:10.022Z,13.97
2018-03-15T12:17:39.240Z,14.04
2018-03-15T12:20:08.453Z,14.09
2018-03-15T12:22:37.682Z,14.03
2018-03-15T12:25:06.903Z,13.98
2018-03-15T12:27:36.871Z,13.91
2018-03-15T12:30:07.002Z,13.86
2018-03-15T12:32:36.147Z,13.81
2018-03-15T12:35:05.407Z,13.73
2018-03-15T12:37:34.634Z,13.65
2018-03-15T12:40:03.899Z,13.68
2018-03-15T12:42:33.196Z,13.79
2018-03-15T12:45:02.413Z,13.79
2018-03-15T12:47:31.604Z,13.85
2018-03-15T12:50:00.862Z,13.96
2018-03-15T12:52:30.262Z,14.01
2018-03-15T12:54:59.502Z,13.98
2018-03-15T12:57:29.507Z,13.90
2018-03-15T12:59:58.727Z,13.88
2018-03-15T13:02:27.910Z,13.77
2018-03-15T13:04:57.948Z,13.70
2018-03-15T13:07:27.912Z,13.68
2018-03-15T13:09:57.891Z,13.73
2018-03-15T13:12:27.878Z,13.80
2018-03-15T13:14:57.083Z,13.89
2018-03-15T13:17:26.279Z,13.99
2018-03-15T13:19:56.273Z,14.10
2018-03-15T13:22:25.511Z,14.15
2018-03-15T13:24:54.742Z,14.19
2018-03-15T13:27:23.934Z,14.20
2018-03-15T13:29:53.207Z,14.24
2018-03-15T13:32:22.432Z,14.35
2018-03-15T13:34:51.659Z,14.47
2018-03-15T13:37:20.873Z,14.57
2018-03-15T13:39:50.099Z,14.54
2018-03-15T13:42:19.371Z,14.49
2018-03-15T13:47:24.777Z,14.45
2018-03-15T13:49:54.003Z,14.48
2018-03-15T13:52:23.232Z,14.49
2018-03-15T13:54:52.448Z,14.52
2018-03-15T13:57:22.423Z,14.52
2018-03-15T13:59:51.619Z,14.49
2018-03-15T14:02:20.853Z,14.36
2018-03-15T14:04:50.039Z,14.25
2018-03-15T14:07:20.175Z,14.25
2018-03-15T14:09:49.422Z,14.24
2018-03-15T14:12:18.623Z,14.20
2018-03-15T14:14:48.050Z,14.12
2018-03-15T14:17:18.034Z,14.09
2018-03-15T14:19:47.278Z,14.05
2018-03-15T14:22:16.499Z,14.03
2018-03-15T14:24:45.755Z,14.04
2018-03-15T14:27:14.966Z,14.06
2018-03-15T14:29:44.926Z,14.08
2018-03-15T14:32:14.273Z,14.05
2018-03-15T14:34:43.604Z,14.10
2018-03-15T14:37:12.956Z,14.08
2018-03-15T14:39:42.210Z,14.08
2018-03-15T14:42:12.147Z,14.06
2018-03-15T14:44:41.446Z,14.07
2018-03-15T14:47:10.654Z,14.04
2018-03-15T14:49:39.931Z,14.04
2018-03-15T14:52:09.307Z,13.99
2018-03-15T14:54:38.572Z,13.94
2018-03-15T14:57:07.787Z,13.82
2018-03-15T14:59:37.849Z,13.69
2018-03-15T15:02:07.033Z,13.63
2018-03-15T15:04:36.261Z,13.61
2018-03-15T15:07:05.472Z,13.54
2018-03-15T15:09:34.810Z,13.48
2018-03-15T15:12:04.070Z,13.35
2018-03-15T15:14:33.305Z,13.34
2018-03-15T15:17:03.275Z,13.32
2018-03-15T15:19:32.582Z,13.28
2018-03-15T15:22:01.752Z,13.25
2018-03-15T15:24:30.969Z,13.27
2018-03-15T15:27:00.169Z,13.29
2018-03-15T15:29:29.529Z,13.27
2018-03-15T15:31:58.881Z,13.24
2018-03-15T15:34:28.090Z,13.15
2018-03-15T15:36:57.295Z,13.10
2018-03-15T15:39:27.319Z,13.00
2018-03-15T15:41:57.300Z,12.90
2018-03-15T15:44:26.519Z,12.85
2018-03-15T15:46:56.503Z,12.83
2018-03-15T15:49:25.882Z,12.78
2018-03-15T15:51:55.273Z,12.76
2018-03-15T15:54:24.537Z,12.75
2018-03-15T15:56:54.850Z,12.70
2018-03-15T15:59:24.915Z,12.68
2018-03-15T16:01:54.135Z,12.59
2018-03-15T16:04:23.410Z,12.51
2018-03-15T16:06:53.529Z,12.47
2018-03-15T16:09:22.746Z,12.41
2018-03-15T16:11:52.091Z,12.32
2018-03-15T16:14:22.085Z,12.31
2018-03-15T16:16:51.431Z,12.22
2018-03-15T16:19:20.771Z,12.19
2018-03-15T16:21:50.018Z,12.17
2018-03-15T16:24:19.978Z,12.18
2018-03-15T16:26:49.203Z,12.15
2018-03-15T16:29:18.560Z,12.07
2018-03-15T16:31:47.761Z,11.98
2018-03-15T16:34:16.985Z,11.87
2018-03-15T16:36:46.265Z,11.77
2018-03-15T16:39:15.478Z,11.71
2018-03-15T16:41:44.702Z,11.65
2018-03-15T16:44:13.930Z,11.66
2018-03-15T16:46:43.879Z,11.68
2018-03-15T16:49:13.128Z,11.64
2018-03-15T16:51:43.110Z,11.65
2018-03-15T16:54:12.360Z,11.65
2018-03-15T16:56:41.747Z,11.59
2018-03-15T16:59:11.890Z,11.48
2018-03-15T17:01:41.138Z,11.42
2018-03-15T17:04:11.858Z,11.41
2018-03-15T17:06:44.329Z,11.34
2018-03-15T17:09:15.642Z,11.21
2018-03-15T17:11:46.454Z,11.18
2018-03-15T17:14:16.445Z,11.18
2018-03-15T17:16:49.418Z,11.11
2018-03-15T17:19:21.076Z,11.03
2018-03-15T17:21:51.623Z,11.01
2018-03-15T17:24:21.648Z,10.94
2018-03-15T17:26:51.865Z,10.92
2018-03-15T17:29:21.166Z,10.80
2018-03-15T17:31:51.173Z,10.70
2018-03-15T17:34:20.377Z,10.60
2018-03-15T17:36:51.384Z,10.54
2018-03-15T17:39:21.106Z,10.44
2018-03-15T17:41:51.712Z,10.35
2018-03-15T17:44:22.379Z,10.34
2018-03-15T17:46:52.813Z,10.31
2018-03-15T17:49:23.239Z,10.24
2018-03-15T17:51:54.419Z,10.18
2018-03-15T17:54:24.100Z,10.15
2018-03-15T17:56:53.642Z,10.09
2018-03-15T17:59:23.188Z,10.12
2018-03-15T18:01:52.530Z,10.06
2018-03-15T18:04:21.987Z,10.04
2018-03-15T18:06:51.163Z,9.96
2018-03-15T18:09:20.403Z,9.92
2018-03-15T18:11:50.478Z,9.85
2018-03-15T18:14:19.726Z,9.76
2018-03-15T18:16:49.882Z,9.72
2018-03-15T18:19:19.115Z,9.64
2018-03-15T18:21:48.347Z,9.60
2018-03-15T18:24:17.581Z,9.55
2018-03-15T18:26:46.814Z,9.50
2018-03-15T18:29:16.044Z,9.44
2018-03-15T18:31:45.256Z,9.43
2018-03-15T18:34:14.472Z,9.38
2018-03-15T18:36:43.756Z,9.32
2018-03-15T18:39:13.177Z,9.28
2018-03-15T18:41:42.363Z,9.27
2018-03-15T18:44:11.604Z,9.24
2018-03-15T18:46:40.925Z,9.22
2018-03-15T18:49:10.134Z,9.19
2018-03-15T18:51:40.102Z,9.18
2018-03-15T18:54:10.935Z,9.18
2018-03-15T18:56:40.140Z,9.13
2018-03-15T18:59:09.542Z,9.09
2018-03-15T19:01:39.492Z,9.04
2018-03-15T19:04:08.672Z,9.02
2018-03-15T19:06:38.711Z,9.03
2018-03-15T19:09:07.935Z,8.98
2018-03-15T19:11:37.187Z,8.97
2018-03-15T19:14:07.154Z,8.95
2018-03-15T19:16:36.391Z,8.93
2018-03-15T19:19:07.154Z,8.89
2018-03-15T19:21:36.562Z,8.90
2018-03-15T19:24:05.781Z,8.91
2018-03-15T19:26:35.024Z,8.87
2018-03-15T19:29:04.235Z,8.87
2018-03-15T19:31:34.354Z,8.82
2018-03-15T19:34:03.569Z,8.77
2018-03-15T19:36:32.810Z,8.74
2018-03-15T19:39:02.028Z,8.72
2018-03-15T19:41:31.310Z,8.70
2018-03-15T19:44:00.522Z,8.70
2018-03-15T19:46:29.727Z,8.71
2018-03-15T19:48:59.927Z,8.70
2018-03-15T19:51:29.292Z,8.73
2018-03-15T19:53:58.512Z,8.73
2018-03-15T19:56:27.715Z,8.69
2018-03-15T19:58:56.938Z,8.70
2018-03-15T20:01:26.144Z,8.74
2018-03-15T20:03:55.440Z,8.75
2018-03-15T20:06:25.400Z,8.74
2018-03-15T20:08:54.634Z,8.71
2018-03-15T20:11:23.858Z,8.70
2018-03-15T20:13:53.159Z,8.68
2018-03-15T20:16:23.155Z,8.63
2018-03-15T20:18:52.634Z,8.62
2018-03-15T20:21:21.832Z,8.62
2018-03-15T20:37:17.532Z,8.65
2018-03-15T20:39:52.384Z,8.58
2018-03-15T20:42:21.703Z,8.61
2018-03-15T20:44:51.719Z,8.64
2018-03-15T20:47:27.248Z,8.68
2018-03-15T20:49:57.283Z,8.63
2018-03-15T20:52:27.291Z,8.66
2018-03-15T20:54:56.491Z,8.64
2018-03-15T20:57:26.487Z,8.58
2018-03-15T20:59:55.684Z,8.53
2018-03-15T21:02:24.896Z,8.51
2018-03-15T21:04:54.148Z,8.49
2018-03-15T21:07:23.489Z,8.52
2018-03-15T21:09:53.507Z,8.53
2018-03-15T21:12:22.731Z,8.55
2018-03-15T21:14:52.078Z,8.57
2018-03-15T21:17:21.332Z,8.61
2018-03-15T21:19:51.314Z,8.65
2018-03-15T21:22:20.571Z,8.69
2018-03-15T21:24:50.026Z,8.70
2018-03-15T21:27:20.096Z,8.64
2018-03-15T21:29:49.328Z,8.69
2018-03-15T21:32:18.560Z,8.72
2018-03-15T21:34:48.562Z,8.75
2018-03-15T21:37:18.554Z,8.75
2018-03-15T21:39:47.759Z,8.78
2018-03-15T21:42:16.985Z,8.78
2018-03-15T21:44:46.943Z,8.76
2018-03-15T21:47:16.193Z,8.82
2018-03-15T21:49:46.168Z,8.81
2018-03-15T21:52:15.376Z,8.78
2018-03-15T21:54:44.615Z,8.78
2018-03-15T21:57:13.982Z,8.76
2018-03-15T21:59:43.189Z,8.77
2018-03-15T22:02:13.168Z,8.79
2018-03-15T22:04:42.451Z,8.80
2018-03-15T22:07:12.088Z,8.79
2018-03-15T22:09:41.380Z,8.74
2018-03-15T22:12:10.592Z,8.70
2018-03-15T22:14:39.816Z,8.61
2018-03-15T22:17:09.825Z,8.47
2018-03-15T22:19:39.013Z,8.38
2018-03-15T22:22:09.040Z,8.28
2018-03-15T22:24:39.120Z,8.13
2018-03-15T22:27:08.394Z,8.09
2018-03-15T22:29:37.595Z,8.06
2018-03-15T22:32:06.871Z,7.98
2018-03-15T22:34:36.101Z,7.89
2018-03-15T22:37:05.378Z,7.94
2018-03-15T22:39:34.608Z,7.83
2018-03-15T22:42:03.797Z,7.80
2018-03-15T22:44:33.019Z,7.72
2018-03-15T22:47:02.222Z,7.60
2018-03-15T22:49:31.444Z,7.40
2018-03-15T22:52:01.453Z,7.32
2018-03-15T22:54:31.426Z,7.25
2018-03-15T22:57:00.675Z,7.19
2018-03-15T22:59:30.127Z,7.14
2018-03-15T23:01:59.380Z,7.13
2018-03-15T23:04:29.382Z,7.09
2018-03-15T23:06:59.383Z,7.05
2018-03-15T23:09:28.583Z,7.08
2018-03-15T23:11:57.879Z,7.05
2018-03-15T23:14:27.090Z,7.05
2018-03-15T23:16:56.360Z,7.05
2018-03-15T23:19:25.597Z,7.04
2018-03-15T23:21:54.791Z,7.04
2018-03-15T23:24:24.229Z,7.02
2018-03-15T23:26:54.135Z,7.09
2018-03-15T23:29:23.362Z,7.20
2018-03-15T23:31:52.615Z,7.26
2018-03-15T23:34:22.685Z,7.20
2018-03-15T23:36:52.247Z,7.09
2018-03-15T23:39:21.406Z,7.04
2018-03-15T23:41:50.611Z,7.01
2018-03-15T23:44:20.611Z,7.05
2018-03-15T23:46:49.881Z,7.07
2018-03-15T23:49:19.071Z,7.06
2018-03-15T23:51:48.256Z,7.10
2018-03-15T23:54:17.546Z,7.13
2018-03-15T23:56:46.746Z,7.06
2018-03-15T23:59:16.015Z,7.04
